createdAt,value
2018-06-18T15:09:02.048Z,25.39
2018-06-18T15:10:01.868Z,25.44
2018-06-18T15:11:01.937Z,25.29
2018-06-18T15:12:02.176Z,25.36
2018-06-18T15:13:01.905Z,25.29
2018-06-18T15:14:01.732Z,25.35
2018-06-18T15:15:04.592Z,25.27
2018-06-18T15:16:01.752Z,25.31
2018-06-18T15:17:01.718Z,25.26
2018-06-18T15:18:01.709Z,25.19
2018-06-18T15:19:01.744Z,25.22
2018-06-18T15:20:02.622Z,25.20
2018-06-18T15:21:03.229Z,25.20
2018-06-18T15:22:01.698Z,25.19
2018-06-18T15:23:01.670Z,25.17
2018-06-18T15:24:01.598Z,25.12
2018-06-18T15:25:01.667Z,25.19
2018-06-18T15:26:01.728Z,25.12
2018-06-18T15:27:01.747Z,25.23
2018-06-18T15:28:01.548Z,25.30
2018-06-18T15:29:02.586Z,25.34
2018-06-18T15:30:01.615Z,25.36
2018-06-18T15:31:01.664Z,25.36
2018-06-18T15:32:02.483Z,25.30
2018-06-18T15:33:01.593Z,25.29
2018-06-18T15:34:02.396Z,25.35
2018-06-18T15:35:02.385Z,25.31
2018-06-18T15:36:02.865Z,25.30
2018-06-18T15:37:02.334Z,25.35
2018-06-18T15:38:02.366Z,25.36
2018-06-18T15:39:02.286Z,25.41
2018-06-18T15:40:02.364Z,25.46
2018-06-18T15:41:01.496Z,25.44
2018-06-18T15:42:01.506Z,25.35
2018-06-18T15:43:02.415Z,25.44
2018-06-18T15:44:01.442Z,25.46
2018-06-18T15:45:01.395Z,25.46
2018-06-18T15:46:01.465Z,25.48
2018-06-18T15:47:02.644Z,25.45
2018-06-18T15:48:01.458Z,25.42
2018-06-18T15:49:02.428Z,25.46
2018-06-18T15:50:01.458Z,25.48
2018-06-18T15:51:01.355Z,25.49
2018-06-18T15:52:01.343Z,25.46
